sensor_id;sensor_type;location;lat;lon;timestamp;temperature;humidity
12708;DHT22;6418;50.824;4.718;2023-05-10T00:00:24;12.90;99.90
12708;DHT22;6418;50.824;4.718;2023-05-10T00:02:51;12.80;99.90
12708;DHT22;6418;50.824;4.718;2023-05-10T00:05:18;12.80;99.90
12708;DHT22;6418;50.824;4.718;2023-05-10T00:07:47;12.80;99.90
12708;DHT22;6418;50.824;4.718;2023-05-10T00:10:14;12.80;99.90
12708;DHT22;6418;50.824;4.718;2023-05-10T00:12:41;12.80;99.90
12708;DHT22;6418;50.824;4.718;2023-05-10T00:15:08;12.80;99.90
12708;DHT22;6418;50.824;4.718;2023-05-10T00:17:36;12.80;99.90
12708;DHT22;6418;50.824;4.718;2023-05-10T00:20:03;12.80;99.90
12708;DHT22;6418;50.824;4.718;2023-05-10T00:22:30;12.80;99.90
12708;DHT22;6418;50.824;4.718;2023-05-10T00:25:02;12.80;99.90
12708;DHT22;6418;50.824;4.718;2023-05-10T00:27:29;12.70;99.90
12708;DHT22;6418;50.824;4.718;2023-05-10T00:29:56;12.70;99.90
12708;DHT22;6418;50.824;4.718;2023-05-10T00:32:23;12.70;99.90
12708;DHT22;6418;50.824;4.718;2023-05-10T00:34:50;12.70;99.90
12708;DHT22;6418;50.824;4.718;2023-05-10T00:37:17;12.70;99.90
12708;DHT22;6418;50.824;4.718;2023-05-10T00:39:44;12.70;99.90
12708;DHT22;6418;50.824;4.718;2023-05-10T00:42:12;12.70;99.90
12708;DHT22;6418;50.824;4.718;2023-05-10T00:44:39;12.70;99.90
12708;DHT22;6418;50.824;4.718;2023-05-10T00:47:06;12.70;99.90
12708;DHT22;6418;50.824;4.718;2023-05-10T00:49:34;12.70;99.90
12708;DHT22;6418;50.824;4.718;2023-05-10T00:52:02;12.70;99.90
12708;DHT22;6418;50.824;4.718;2023-05-10T00:54:30;12.70;99.90
12708;DHT22;6418;50.824;4.718;2023-05-10T00:56:57;12.70;99.90
12708;DHT22;6418;50.824;4.718;2023-05-10T00:59:26;12.70;99.90
12708;DHT22;6418;50.824;4.718;2023-05-10T01:01:53;12.70;99.90
12708;DHT22;6418;50.824;4.718;2023-05-10T01:04:21;12.70;99.90
12708;DHT22;6418;50.824;4.718;2023-05-10T01:06:51;12.70;99.90
12708;DHT22;6418;50.824;4.718;2023-05-10T01:09:19;12.70;99.90
12708;DHT22;6418;50.824;4.718;2023-05-10T01:11:47;12.70;99.90
12708;DHT22;6418;50.824;4.718;2023-05-10T01:14:16;12.70;99.90
12708;DHT22;6418;50.824;4.718;2023-05-10T01:16:47;12.70;99.90
12708;DHT22;6418;50.824;4.718;2023-05-10T01:19:19;12.70;99.90
12708;DHT22;6418;50.824;4.718;2023-05-10T01:22:03;12.70;99.90
12708;DHT22;6418;50.824;4.718;2023-05-10T01:27:53;12.70;99.90
12708;DHT22;6418;50.824;4.718;2023-05-10T01:33:27;12.70;99.90
12708;DHT22;6418;50.824;4.718;2023-05-10T01:36:03;12.70;99.90
12708;DHT22;6418;50.824;4.718;2023-05-10T01:38:44;12.70;99.90
12708;DHT22;6418;50.824;4.718;2023-05-10T01:41:18;12.70;99.90
12708;DHT22;6418;50.824;4.718;2023-05-10T01:43:54;12.60;99.90
12708;DHT22;6418;50.824;4.718;2023-05-10T01:46:27;12.60;99.90
12708;DHT22;6418;50.824;4.718;2023-05-10T01:49:00;12.60;99.90
12708;DHT22;6418;50.824;4.718;2023-05-10T01:51:37;12.60;99.90
12708;DHT22;6418;50.824;4.718;2023-05-10T01:54:06;12.60;99.90
12708;DHT22;6418;50.824;4.718;2023-05-10T01:56:36;12.60;99.90
12708;DHT22;6418;50.824;4.718;2023-05-10T01:59:08;12.60;99.90
12708;DHT22;6418;50.824;4.718;2023-05-10T02:01:38;12.60;99.90
12708;DHT22;6418;50.824;4.718;2023-05-10T02:04:07;12.60;99.90
12708;DHT22;6418;50.824;4.718;2023-05-10T02:06:36;12.60;99.90
12708;DHT22;6418;50.824;4.718;2023-05-10T02:09:05;12.60;99.90
12708;DHT22;6418;50.824;4.718;2023-05-10T02:11:33;12.60;99.90
12708;DHT22;6418;50.824;4.718;2023-05-10T02:14:01;12.70;99.90
12708;DHT22;6418;50.824;4.718;2023-05-10T02:16:29;12.70;99.90
12708;DHT22;6418;50.824;4.718;2023-05-10T02:18:58;12.60;99.90
12708;DHT22;6418;50.824;4.718;2023-05-10T02:21:28;12.70;99.90
12708;DHT22;6418;50.824;4.718;2023-05-10T02:23:59;12.70;99.90
12708;DHT22;6418;50.824;4.718;2023-05-10T02:26:29;12.70;99.90
12708;DHT22;6418;50.824;4.718;2023-05-10T02:28:58;12.70;99.90
12708;DHT22;6418;50.824;4.718;2023-05-10T02:31:26;12.70;99.90
12708;DHT22;6418;50.824;4.718;2023-05-10T02:33:53;12.70;99.90
12708;DHT22;6418;50.824;4.718;2023-05-10T02:36:21;12.70;99.90
12708;DHT22;6418;50.824;4.718;2023-05-10T02:38:51;12.70;99.90
12708;DHT22;6418;50.824;4.718;2023-05-10T02:41:20;12.70;99.90
12708;DHT22;6418;50.824;4.718;2023-05-10T02:43:50;12.70;99.90
12708;DHT22;6418;50.824;4.718;2023-05-10T02:46:18;12.70;99.90
12708;DHT22;6418;50.824;4.718;2023-05-10T02:48:45;12.70;99.90
12708;DHT22;6418;50.824;4.718;2023-05-10T02:51:14;12.70;99.90
12708;DHT22;6418;50.824;4.718;2023-05-10T02:53:44;12.70;99.90
12708;DHT22;6418;50.824;4.718;2023-05-10T02:56:18;12.70;99.90
12708;DHT22;6418;50.824;4.718;2023-05-10T02:58:46;12.70;99.90
12708;DHT22;6418;50.824;4.718;2023-05-10T03:01:13;12.70;99.90
12708;DHT22;6418;50.824;4.718;2023-05-10T03:03:41;12.70;99.90
12708;DHT22;6418;50.824;4.718;2023-05-10T03:06:08;12.70;99.90
12708;DHT22;6418;50.824;4.718;2023-05-10T03:08:35;12.70;99.90
12708;DHT22;6418;50.824;4.718;2023-05-10T03:11:16;12.70;99.90
12708;DHT22;6418;50.824;4.718;2023-05-10T03:13:56;12.70;99.90
12708;DHT22;6418;50.824;4.718;2023-05-10T03:16:32;12.70;99.90
12708;DHT22;6418;50.824;4.718;2023-05-10T03:19:09;12.70;99.90
12708;DHT22;6418;50.824;4.718;2023-05-10T03:21:42;12.70;99.90
12708;DHT22;6418;50.824;4.718;2023-05-10T03:24:12;12.70;99.90
12708;DHT22;6418;50.824;4.718;2023-05-10T03:26:43;12.70;99.90
12708;DHT22;6418;50.824;4.718;2023-05-10T03:29:13;12.70;99.90
12708;DHT22;6418;50.824;4.718;2023-05-10T03:31:41;12.70;99.90
12708;DHT22;6418;50.824;4.718;2023-05-10T03:34:08;12.70;99.90
12708;DHT22;6418;50.824;4.718;2023-05-10T03:36:36;12.70;99.90
12708;DHT22;6418;50.824;4.718;2023-05-10T03:39:03;12.70;99.90
12708;DHT22;6418;50.824;4.718;2023-05-10T03:41:30;12.70;99.90
12708;DHT22;6418;50.824;4.718;2023-05-10T03:43:58;12.70;99.90
12708;DHT22;6418;50.824;4.718;2023-05-10T03:46:25;12.70;99.90
12708;DHT22;6418;50.824;4.718;2023-05-10T03:48:52;12.70;99.90
12708;DHT22;6418;50.824;4.718;2023-05-10T03:51:19;12.70;99.90
12708;DHT22;6418;50.824;4.718;2023-05-10T03:53:47;12.70;99.90
12708;DHT22;6418;50.824;4.718;2023-05-10T03:56:14;12.70;99.90
12708;DHT22;6418;50.824;4.718;2023-05-10T03:58:41;12.70;99.90
12708;DHT22;6418;50.824;4.718;2023-05-10T04:01:10;12.70;99.90
12708;DHT22;6418;50.824;4.718;2023-05-10T04:03:37;12.70;99.90
12708;DHT22;6418;50.824;4.718;2023-05-10T04:06:04;12.70;99.90
12708;DHT22;6418;50.824;4.718;2023-05-10T04:08:33;12.70;99.90
12708;DHT22;6418;50.824;4.718;2023-05-10T04:11:07;12.70;99.90
12708;DHT22;6418;50.824;4.718;2023-05-10T04:13:34;12.70;99.90
12708;DHT22;6418;50.824;4.718;2023-05-10T04:16:01;12.70;99.90
12708;DHT22;6418;50.824;4.718;2023-05-10T04:18:29;12.60;99.90
12708;DHT22;6418;50.824;4.718;2023-05-10T04:20:56;12.60;99.90
12708;DHT22;6418;50.824;4.718;2023-05-10T04:23:23;12.60;99.90
12708;DHT22;6418;50.824;4.718;2023-05-10T04:25:50;12.60;99.90
12708;DHT22;6418;50.824;4.718;2023-05-10T04:28:17;12.60;99.90
12708;DHT22;6418;50.824;4.718;2023-05-10T04:30:45;12.60;99.90
12708;DHT22;6418;50.824;4.718;2023-05-10T04:33:12;12.60;99.90
12708;DHT22;6418;50.824;4.718;2023-05-10T04:35:41;12.60;99.90
12708;DHT22;6418;50.824;4.718;2023-05-10T04:38:08;12.60;99.90
12708;DHT22;6418;50.824;4.718;2023-05-10T04:40:35;12.60;99.90
12708;DHT22;6418;50.824;4.718;2023-05-10T04:43:02;12.50;99.90
12708;DHT22;6418;50.824;4.718;2023-05-10T04:45:29;12.50;99.90
12708;DHT22;6418;50.824;4.718;2023-05-10T04:47:56;12.50;99.90
12708;DHT22;6418;50.824;4.718;2023-05-10T04:50:23;12.50;99.90
12708;DHT22;6418;50.824;4.718;2023-05-10T04:52:51;12.50;99.90
12708;DHT22;6418;50.824;4.718;2023-05-10T04:55:18;12.50;99.90
12708;DHT22;6418;50.824;4.718;2023-05-10T04:57:45;12.50;99.90
12708;DHT22;6418;50.824;4.718;2023-05-10T05:00:13;12.50;99.90
12708;DHT22;6418;50.824;4.718;2023-05-10T05:02:42;12.50;99.90
12708;DHT22;6418;50.824;4.718;2023-05-10T05:05:10;12.50;99.90
12708;DHT22;6418;50.824;4.718;2023-05-10T05:07:37;12.50;99.90
12708;DHT22;6418;50.824;4.718;2023-05-10T05:10:07;12.50;99.90
12708;DHT22;6418;50.824;4.718;2023-05-10T05:12:34;12.50;99.90
12708;DHT22;6418;50.824;4.718;2023-05-10T05:15:02;12.50;99.90
12708;DHT22;6418;50.824;4.718;2023-05-10T05:17:30;12.50;99.90
12708;DHT22;6418;50.824;4.718;2023-05-10T05:19:57;12.50;99.90
12708;DHT22;6418;50.824;4.718;2023-05-10T05:22:24;12.50;99.90
12708;DHT22;6418;50.824;4.718;2023-05-10T05:24:53;12.60;99.90
12708;DHT22;6418;50.824;4.718;2023-05-10T05:27:22;12.60;99.90
12708;DHT22;6418;50.824;4.718;2023-05-10T05:29:50;12.60;99.90
12708;DHT22;6418;50.824;4.718;2023-05-10T05:32:17;12.60;99.90
12708;DHT22;6418;50.824;4.718;2023-05-10T05:34:44;12.60;99.90
12708;DHT22;6418;50.824;4.718;2023-05-10T05:37:13;12.60;99.90
12708;DHT22;6418;50.824;4.718;2023-05-10T05:39:41;12.60;99.90
12708;DHT22;6418;50.824;4.718;2023-05-10T05:42:08;12.60;99.90
12708;DHT22;6418;50.824;4.718;2023-05-10T05:44:37;12.60;99.90
12708;DHT22;6418;50.824;4.718;2023-05-10T05:47:05;12.60;99.90
12708;DHT22;6418;50.824;4.718;2023-05-10T05:49:32;12.60;99.90
12708;DHT22;6418;50.824;4.718;2023-05-10T05:51:59;12.60;99.90
12708;DHT22;6418;50.824;4.718;2023-05-10T05:54:27;12.60;99.90
12708;DHT22;6418;50.824;4.718;2023-05-10T05:56:54;12.60;99.90
12708;DHT22;6418;50.824;4.718;2023-05-10T05:59:22;12.60;99.90
12708;DHT22;6418;50.824;4.718;2023-05-10T06:01:50;12.60;99.90
12708;DHT22;6418;50.824;4.718;2023-05-10T06:04:18;12.60;99.90
12708;DHT22;6418;50.824;4.718;2023-05-10T06:06:45;12.70;99.90
12708;DHT22;6418;50.824;4.718;2023-05-10T06:09:12;12.70;99.90
12708;DHT22;6418;50.824;4.718;2023-05-10T06:11:39;12.70;99.90
12708;DHT22;6418;50.824;4.718;2023-05-10T06:14:07;12.70;99.90
12708;DHT22;6418;50.824;4.718;2023-05-10T06:16:34;12.70;99.90
12708;DHT22;6418;50.824;4.718;2023-05-10T06:19:02;12.70;99.90
12708;DHT22;6418;50.824;4.718;2023-05-10T06:21:29;12.70;99.90
12708;DHT22;6418;50.824;4.718;2023-05-10T06:23:57;12.70;99.90
12708;DHT22;6418;50.824;4.718;2023-05-10T06:26:24;12.70;99.90
12708;DHT22;6418;50.824;4.718;2023-05-10T06:28:51;12.70;99.90
12708;DHT22;6418;50.824;4.718;2023-05-10T06:31:18;12.80;99.90
12708;DHT22;6418;50.824;4.718;2023-05-10T06:33:45;12.80;99.90
12708;DHT22;6418;50.824;4.718;2023-05-10T06:36:14;12.80;99.90
12708;DHT22;6418;50.824;4.718;2023-05-10T06:38:41;12.70;99.90
12708;DHT22;6418;50.824;4.718;2023-05-10T06:41:08;12.70;99.90
12708;DHT22;6418;50.824;4.718;2023-05-10T06:43:35;12.70;99.90
12708;DHT22;6418;50.824;4.718;2023-05-10T06:46:05;12.70;99.90
12708;DHT22;6418;50.824;4.718;2023-05-10T06:48:33;12.70;99.90
12708;DHT22;6418;50.824;4.718;2023-05-10T06:51:00;12.70;99.90
12708;DHT22;6418;50.824;4.718;2023-05-10T06:53:28;12.60;99.90
12708;DHT22;6418;50.824;4.718;2023-05-10T06:55:55;12.60;99.90
12708;DHT22;6418;50.824;4.718;2023-05-10T06:58:23;12.60;99.90
12708;DHT22;6418;50.824;4.718;2023-05-10T07:00:50;12.60;99.90
12708;DHT22;6418;50.824;4.718;2023-05-10T07:03:17;12.80;99.90
12708;DHT22;6418;50.824;4.718;2023-05-10T07:05:44;12.60;99.90
12708;DHT22;6418;50.824;4.718;2023-05-10T07:08:11;12.60;99.90
12708;DHT22;6418;50.824;4.718;2023-05-10T07:10:40;12.70;99.90
12708;DHT22;6418;50.824;4.718;2023-05-10T07:13:07;12.70;99.90
12708;DHT22;6418;50.824;4.718;2023-05-10T07:15:35;12.70;99.90
12708;DHT22;6418;50.824;4.718;2023-05-10T07:18:02;12.70;99.90
12708;DHT22;6418;50.824;4.718;2023-05-10T07:20:31;12.70;99.90
12708;DHT22;6418;50.824;4.718;2023-05-10T07:22:58;12.70;99.90
12708;DHT22;6418;50.824;4.718;2023-05-10T07:25:25;12.70;99.90
12708;DHT22;6418;50.824;4.718;2023-05-10T07:27:53;12.80;99.90
12708;DHT22;6418;50.824;4.718;2023-05-10T07:30:21;12.80;99.90
12708;DHT22;6418;50.824;4.718;2023-05-10T07:32:50;12.90;99.90
12708;DHT22;6418;50.824;4.718;2023-05-10T07:35:18;12.90;99.90
12708;DHT22;6418;50.824;4.718;2023-05-10T07:37:45;12.90;99.90
12708;DHT22;6418;50.824;4.718;2023-05-10T07:40:12;12.90;99.90
12708;DHT22;6418;50.824;4.718;2023-05-10T07:42:42;12.90;99.90
12708;DHT22;6418;50.824;4.718;2023-05-10T07:45:11;12.60;99.90
12708;DHT22;6418;50.824;4.718;2023-05-10T07:47:38;12.90;99.90
12708;DHT22;6418;50.824;4.718;2023-05-10T07:50:06;12.90;99.90
12708;DHT22;6418;50.824;4.718;2023-05-10T07:52:34;12.90;99.90
12708;DHT22;6418;50.824;4.718;2023-05-10T07:55:01;12.90;99.90
12708;DHT22;6418;50.824;4.718;2023-05-10T07:57:30;12.90;99.90
12708;DHT22;6418;50.824;4.718;2023-05-10T07:59:57;12.90;99.90
12708;DHT22;6418;50.824;4.718;2023-05-10T08:02:29;12.90;99.90
12708;DHT22;6418;50.824;4.718;2023-05-10T08:04:56;12.90;99.90
12708;DHT22;6418;50.824;4.718;2023-05-10T08:07:25;12.90;99.90
12708;DHT22;6418;50.824;4.718;2023-05-10T08:09:52;12.90;99.90
12708;DHT22;6418;50.824;4.718;2023-05-10T08:12:19;12.90;99.90
12708;DHT22;6418;50.824;4.718;2023-05-10T08:14:46;12.90;99.90
12708;DHT22;6418;50.824;4.718;2023-05-10T08:17:13;12.90;99.90
12708;DHT22;6418;50.824;4.718;2023-05-10T08:19:41;12.90;99.90
12708;DHT22;6418;50.824;4.718;2023-05-10T08:22:08;12.90;99.90
12708;DHT22;6418;50.824;4.718;2023-05-10T08:24:35;12.90;99.90
12708;DHT22;6418;50.824;4.718;2023-05-10T08:27:05;12.90;99.90
12708;DHT22;6418;50.824;4.718;2023-05-10T08:29:32;12.90;99.90
12708;DHT22;6418;50.824;4.718;2023-05-10T08:31:59;12.60;99.90
12708;DHT22;6418;50.824;4.718;2023-05-10T08:34:26;12.90;99.90
12708;DHT22;6418;50.824;4.718;2023-05-10T08:36:55;12.90;99.90
12708;DHT22;6418;50.824;4.718;2023-05-10T08:39:22;12.90;99.90
12708;DHT22;6418;50.824;4.718;2023-05-10T08:41:51;12.90;99.90
12708;DHT22;6418;50.824;4.718;2023-05-10T08:44:18;12.90;99.90
12708;DHT22;6418;50.824;4.718;2023-05-10T08:46:46;12.90;99.90
12708;DHT22;6418;50.824;4.718;2023-05-10T08:49:16;12.90;99.90
12708;DHT22;6418;50.824;4.718;2023-05-10T08:51:49;12.90;99.90
12708;DHT22;6418;50.824;4.718;2023-05-10T08:54:19;12.90;99.90
12708;DHT22;6418;50.824;4.718;2023-05-10T08:56:47;12.90;99.90
12708;DHT22;6418;50.824;4.718;2023-05-10T08:59:14;12.90;99.90
12708;DHT22;6418;50.824;4.718;2023-05-10T09:01:43;12.90;99.90
12708;DHT22;6418;50.824;4.718;2023-05-10T09:04:12;12.90;99.90
12708;DHT22;6418;50.824;4.718;2023-05-10T09:06:39;12.80;99.90
12708;DHT22;6418;50.824;4.718;2023-05-10T09:09:06;12.80;99.90
12708;DHT22;6418;50.824;4.718;2023-05-10T09:11:35;12.80;99.90
12708;DHT22;6418;50.824;4.718;2023-05-10T09:14:02;12.80;99.90
12708;DHT22;6418;50.824;4.718;2023-05-10T09:16:29;12.80;99.90
12708;DHT22;6418;50.824;4.718;2023-05-10T09:18:56;12.80;99.90
12708;DHT22;6418;50.824;4.718;2023-05-10T09:21:25;12.80;99.90
12708;DHT22;6418;50.824;4.718;2023-05-10T09:23:52;12.80;99.90
12708;DHT22;6418;50.824;4.718;2023-05-10T09:26:25;12.80;99.90
12708;DHT22;6418;50.824;4.718;2023-05-10T09:28:55;12.70;99.90
12708;DHT22;6418;50.824;4.718;2023-05-10T09:31:23;12.80;99.90
12708;DHT22;6418;50.824;4.718;2023-05-10T09:33:51;12.70;99.90
12708;DHT22;6418;50.824;4.718;2023-05-10T09:36:18;12.80;99.90
12708;DHT22;6418;50.824;4.718;2023-05-10T09:38:46;12.80;99.90
12708;DHT22;6418;50.824;4.718;2023-05-10T09:41:18;12.80;99.90
12708;DHT22;6418;50.824;4.718;2023-05-10T09:43:45;12.80;99.90
12708;DHT22;6418;50.824;4.718;2023-05-10T09:46:17;12.80;99.90
12708;DHT22;6418;50.824;4.718;2023-05-10T09:48:45;12.80;99.90
12708;DHT22;6418;50.824;4.718;2023-05-10T09:51:19;12.80;99.90
12708;DHT22;6418;50.824;4.718;2023-05-10T09:53:46;12.80;99.90
12708;DHT22;6418;50.824;4.718;2023-05-10T09:56:32;12.80;99.90
12708;DHT22;6418;50.824;4.718;2023-05-10T09:59:02;12.80;99.90
12708;DHT22;6418;50.824;4.718;2023-05-10T10:01:31;12.80;99.90
12708;DHT22;6418;50.824;4.718;2023-05-10T10:04:03;12.80;99.90
12708;DHT22;6418;50.824;4.718;2023-05-10T10:06:35;12.90;99.90
12708;DHT22;6418;50.824;4.718;2023-05-10T10:09:04;12.90;99.90
12708;DHT22;6418;50.824;4.718;2023-05-10T10:11:31;12.90;99.90
12708;DHT22;6418;50.824;4.718;2023-05-10T10:13:58;13.00;99.90
12708;DHT22;6418;50.824;4.718;2023-05-10T10:16:27;13.00;99.90
12708;DHT22;6418;50.824;4.718;2023-05-10T10:18:57;13.00;99.90
12708;DHT22;6418;50.824;4.718;2023-05-10T10:21:24;13.00;99.90
12708;DHT22;6418;50.824;4.718;2023-05-10T10:23:51;12.20;99.90
12708;DHT22;6418;50.824;4.718;2023-05-10T10:26:19;13.10;99.90
12708;DHT22;6418;50.824;4.718;2023-05-10T10:28:51;13.20;99.90
12708;DHT22;6418;50.824;4.718;2023-05-10T10:31:27;13.20;99.90
12708;DHT22;6418;50.824;4.718;2023-05-10T10:34:06;13.20;99.90
12708;DHT22;6418;50.824;4.718;2023-05-10T10:36:39;13.20;99.90
12708;DHT22;6418;50.824;4.718;2023-05-10T10:39:10;13.20;99.90
12708;DHT22;6418;50.824;4.718;2023-05-10T10:41:38;13.30;99.90
12708;DHT22;6418;50.824;4.718;2023-05-10T10:44:26;13.30;99.90
12708;DHT22;6418;50.824;4.718;2023-05-10T10:47:03;13.30;99.90
12708;DHT22;6418;50.824;4.718;2023-05-10T10:49:38;13.30;99.90
12708;DHT22;6418;50.824;4.718;2023-05-10T10:52:35;13.40;99.90
12708;DHT22;6418;50.824;4.718;2023-05-10T10:55:05;13.40;99.90
12708;DHT22;6418;50.824;4.718;2023-05-10T10:57:43;13.40;99.90
12708;DHT22;6418;50.824;4.718;2023-05-10T11:00:28;13.50;99.90
12708;DHT22;6418;50.824;4.718;2023-05-10T11:02:58;13.60;99.90
12708;DHT22;6418;50.824;4.718;2023-05-10T11:05:45;13.60;99.90
12708;DHT22;6418;50.824;4.718;2023-05-10T11:08:17;13.70;99.90
12708;DHT22;6418;50.824;4.718;2023-05-10T11:10:52;13.90;99.90
12708;DHT22;6418;50.824;4.718;2023-05-10T11:13:30;14.00;99.90
12708;DHT22;6418;50.824;4.718;2023-05-10T11:15:58;14.10;99.90
12708;DHT22;6418;50.824;4.718;2023-05-10T11:18:27;14.20;99.90
12708;DHT22;6418;50.824;4.718;2023-05-10T11:20:58;14.30;99.90
12708;DHT22;6418;50.824;4.718;2023-05-10T11:23:30;14.40;99.90
12708;DHT22;6418;50.824;4.718;2023-05-10T11:25:59;14.50;99.90
12708;DHT22;6418;50.824;4.718;2023-05-10T11:28:26;14.70;99.90
12708;DHT22;6418;50.824;4.718;2023-05-10T11:30:54;14.70;99.90
12708;DHT22;6418;50.824;4.718;2023-05-10T11:33:22;14.90;99.90
12708;DHT22;6418;50.824;4.718;2023-05-10T11:35:49;14.90;99.90
12708;DHT22;6418;50.824;4.718;2023-05-10T11:38:17;15.00;99.90
12708;DHT22;6418;50.824;4.718;2023-05-10T11:40:44;15.00;99.90
12708;DHT22;6418;50.824;4.718;2023-05-10T11:43:11;15.10;99.90
12708;DHT22;6418;50.824;4.718;2023-05-10T11:45:40;15.20;99.90
12708;DHT22;6418;50.824;4.718;2023-05-10T11:48:08;15.20;99.90
12708;DHT22;6418;50.824;4.718;2023-05-10T11:50:35;15.20;99.90
12708;DHT22;6418;50.824;4.718;2023-05-10T11:53:02;15.20;99.90
12708;DHT22;6418;50.824;4.718;2023-05-10T11:55:33;15.20;99.90
12708;DHT22;6418;50.824;4.718;2023-05-10T11:58:01;15.30;99.90
12708;DHT22;6418;50.824;4.718;2023-05-10T12:00:29;15.30;99.90
12708;DHT22;6418;50.824;4.718;2023-05-10T12:02:57;15.40;99.90
12708;DHT22;6418;50.824;4.718;2023-05-10T12:05:24;15.50;99.90
12708;DHT22;6418;50.824;4.718;2023-05-10T12:07:51;15.50;99.90
12708;DHT22;6418;50.824;4.718;2023-05-10T12:10:25;15.70;99.90
12708;DHT22;6418;50.824;4.718;2023-05-10T12:12:54;15.80;99.90
12708;DHT22;6418;50.824;4.718;2023-05-10T12:15:24;15.80;99.90
12708;DHT22;6418;50.824;4.718;2023-05-10T12:17:51;15.90;99.90
12708;DHT22;6418;50.824;4.718;2023-05-10T12:20:20;16.00;99.90
12708;DHT22;6418;50.824;4.718;2023-05-10T12:22:49;16.10;99.90
12708;DHT22;6418;50.824;4.718;2023-05-10T12:25:17;16.20;99.90
12708;DHT22;6418;50.824;4.718;2023-05-10T12:28:02;16.30;99.90
12708;DHT22;6418;50.824;4.718;2023-05-10T12:30:31;16.30;99.90
12708;DHT22;6418;50.824;4.718;2023-05-10T12:33:02;16.40;99.90
12708;DHT22;6418;50.824;4.718;2023-05-10T12:35:42;16.40;99.90
12708;DHT22;6418;50.824;4.718;2023-05-10T12:38:27;16.50;99.90
12708;DHT22;6418;50.824;4.718;2023-05-10T12:40:56;16.60;99.90
12708;DHT22;6418;50.824;4.718;2023-05-10T12:43:25;16.70;99.90
12708;DHT22;6418;50.824;4.718;2023-05-10T12:45:52;16.70;99.90
12708;DHT22;6418;50.824;4.718;2023-05-10T12:48:19;16.80;99.90
12708;DHT22;6418;50.824;4.718;2023-05-10T12:50:46;16.80;99.90
12708;DHT22;6418;50.824;4.718;2023-05-10T12:53:14;16.90;99.90
12708;DHT22;6418;50.824;4.718;2023-05-10T12:55:42;17.00;99.90
12708;DHT22;6418;50.824;4.718;2023-05-10T12:58:09;17.00;99.90
12708;DHT22;6418;50.824;4.718;2023-05-10T13:00:37;17.00;99.90
